Time;durP1;ratioP1;P1;durP2;ratioP2;P2;SDS_P1;SDS_P2;PMS_P1;PMS_P2;Temp;Humidity;BMP_temperature;BMP_pressure;BME280_temperature;BME280_humidity;BME280_pressure;Samples;Min_cycle;Max_cycle;Signal;HPM_P1;HPM_P2
2022/04/18 00:04:57;;;;;;;7.63;6.00;;;;;;;4.38;70.40;100757.94;10244671;29;20056;-81
2022/04/18 00:09:58;;;;;;;6.82;6.22;;;;;;;4.13;71.40;100750.88;10244969;29;20043;-81
2022/04/18 00:15:01;;;;;;;7.57;6.38;;;;;;;3.99;71.93;100753.41;10246986;29;20051;-81
2022/04/18 00:20:03;;;;;;;7.10;6.28;;;;;;;3.93;71.40;100749.00;10258651;29;20036;-81
2022/04/18 00:25:05;;;;;;;5.95;5.38;;;;;;;3.60;73.21;100757.44;10258759;28;20047;-80
2022/04/18 00:30:07;;;;;;;10.80;8.15;;;;;;;3.60;73.64;100749.66;10241002;29;20470;-80
2022/04/18 00:35:08;;;;;;;6.20;5.60;;;;;;;3.76;73.50;100743.72;10225124;29;20055;-80
2022/04/18 00:40:11;;;;;;;5.72;5.22;;;;;;;3.65;73.62;100737.56;10240307;29;20409;-80
2022/04/18 00:45:13;;;;;;;6.90;5.70;;;;;;;3.77;72.62;100729.84;10239291;29;20058;-81
2022/04/18 00:50:15;;;;;;;7.78;6.97;;;;;;;3.89;71.87;100715.16;10243293;29;20040;-81
2022/04/18 00:55:18;;;;;;;6.82;6.20;;;;;;;3.71;71.95;100713.31;10242773;29;20048;-80
2022/04/18 01:00:21;;;;;;;7.20;6.60;;;;;;;3.35;73.43;100713.91;10242589;29;20040;-81
2022/04/18 01:05:23;;;;;;;6.93;6.32;;;;;;;3.28;73.92;100715.59;10244539;29;20044;-81
2022/04/18 01:10:24;;;;;;;6.85;6.20;;;;;;;3.37;74.16;100709.63;10225718;29;20131;-81
2022/04/18 01:15:26;;;;;;;7.28;6.60;;;;;;;3.64;73.71;100701.16;10239444;29;20044;-80
2022/04/18 01:21:02;;;;;;;6.38;5.78;;;;;;;3.43;73.73;100684.53;10227961;29;20111;-81
2022/04/18 01:31:47;;;;;;;7.15;6.45;;;;;;;3.07;75.72;100677.31;10237750;29;20051;-80
2022/04/18 01:36:49;;;;;;;7.30;6.18;;;;;;;3.01;75.94;100664.25;10223838;23;20073;-82
2022/04/18 01:41:51;;;;;;;7.18;6.53;;;;;;;3.08;75.71;100666.06;10190901;29;20059;-82
2022/04/18 01:46:54;;;;;;;7.05;6.15;;;;;;;2.98;76.31;100654.72;10194563;29;20140;-81
2022/04/18 01:51:57;;;;;;;7.80;7.10;;;;;;;3.07;76.37;100656.53;10230006;29;20119;-81
2022/04/18 01:56:59;;;;;;;6.70;6.10;;;;;;;2.91;76.29;100646.84;10230704;29;20047;-81
2022/04/18 02:02:01;;;;;;;6.95;6.22;;;;;;;2.86;76.37;100639.03;10238881;29;20048;-82
2022/04/18 02:07:04;;;;;;;7.38;6.78;;;;;;;2.81;77.36;100647.63;10222604;29;20051;-82
2022/04/18 02:12:07;;;;;;;8.80;8.00;;;;;;;3.01;77.33;100640.88;10238590;29;20051;-81
2022/04/18 02:17:22;;;;;;;6.82;6.22;;;;;;;3.33;75.95;100635.09;10232275;29;20047;-80
2022/04/18 02:22:24;;;;;;;7.43;6.82;;;;;;;2.94;76.43;100629.56;10237286;29;20490;-81
2022/04/18 02:27:26;;;;;;;7.60;6.90;;;;;;;2.82;77.07;100631.19;10249960;29;20096;-82
2022/04/18 02:32:47;;;;;;;7.78;7.07;;;;;;;2.80;77.40;100632.91;10244492;29;20055;-81
2022/04/18 02:37:51;;;;;;;6.97;6.35;;;;;;;2.70;77.62;100625.03;10225018;29;20040;-81
2022/04/18 02:42:57;;;;;;;8.05;7.25;;;;;;;3.00;76.39;100631.34;10239103;29;20052;-82
2022/04/18 02:48:00;;;;;;;8.40;7.60;;;;;;;2.55;77.84;100624.00;10236048;29;20040;-82
2022/04/18 02:53:02;;;;;;;8.23;7.45;;;;;;;2.36;79.59;100623.81;10236368;29;20080;-82
2022/04/18 02:58:15;;;;;;;7.32;6.72;;;;;;;2.36;79.70;100609.97;10242458;29;20051;-81
2022/04/18 03:03:18;;;;;;;7.93;7.32;;;;;;;2.29;79.87;100601.25;10261041;29;20052;-81
2022/04/18 03:08:21;;;;;;;8.32;7.63;;;;;;;2.30;79.88;100605.56;10261123;29;20043;-82
2022/04/18 03:13:22;;;;;;;8.88;8.07;;;;;;;2.39;79.63;100599.59;10259463;29;20063;-81
2022/04/18 03:18:24;;;;;;;10.13;9.13;;;;;;;2.59;79.30;100587.72;10256447;29;20061;-81
2022/04/18 03:23:26;;;;;;;10.35;9.45;;;;;;;2.29;80.65;100588.28;10259543;29;20059;-80
2022/04/18 03:28:48;;;;;;;10.23;9.23;;;;;;;2.02;82.12;100592.28;10242962;29;20065;-81
2022/04/18 03:33:50;;;;;;;9.55;8.63;;;;;;;2.06;82.07;100582.84;10247569;29;20423;-82
2022/04/18 03:44:15;;;;;;;9.80;9.00;;;;;;;1.98;82.48;100584.47;10245985;29;20051;-80
2022/04/18 03:49:18;;;;;;;9.57;8.77;;;;;;;1.99;82.07;100600.06;10230936;29;20048;-80
2022/04/18 03:54:22;;;;;;;9.40;8.70;;;;;;;2.06;81.36;100582.84;10241832;29;20139;-80
2022/04/18 03:59:24;;;;;;;10.60;9.70;;;;;;;2.30;80.38;100578.75;10241435;29;20105;-82
2022/04/18 04:04:36;;;;;;;11.43;10.35;;;;;;;2.23;80.88;100596.00;10247576;29;20067;-82
2022/04/18 04:09:39;;;;;;;11.10;10.20;;;;;;;1.96;82.48;100589.66;10248001;29;20048;-81
2022/04/18 04:14:43;;;;;;;11.07;10.07;;;;;;;2.22;81.18;100583.88;10228581;29;20052;-79
2022/04/18 04:19:46;;;;;;;10.48;9.68;;;;;;;2.01;82.01;100582.78;10243676;29;20114;-81
2022/04/18 04:25:01;;;;;;;11.07;10.07;;;;;;;1.71;83.43;100590.19;10242237;29;20447;-79
2022/04/18 04:30:04;;;;;;;9.77;8.98;;;;;;;1.82;83.30;100587.75;10236776;29;20040;-81
2022/04/18 04:35:17;;;;;;;9.95;9.15;;;;;;;1.79;83.88;100579.91;10236338;29;20052;-81
2022/04/18 04:40:30;;;;;;;9.73;8.95;;;;;;;2.22;81.64;100576.09;10212101;29;20050;-81
2022/04/18 04:45:32;;;;;;;9.45;8.65;;;;;;;2.05;82.18;100580.25;10226199;29;20048;-83
2022/04/18 04:50:52;;;;;;;9.05;8.30;;;;;;;2.06;82.96;100577.66;10226723;29;20103;-81
2022/04/18 04:55:54;;;;;;;9.48;8.60;;;;;;;1.94;83.63;100582.69;10224236;29;20051;-83
2022/04/18 05:00:57;;;;;;;7.80;7.20;;;;;;;2.11;83.71;100573.38;10207838;29;20111;-81
2022/04/18 05:06:07;;;;;;;9.18;8.48;;;;;;;2.18;83.18;100569.16;10208267;29;20064;-82
2022/04/18 05:11:13;;;;;;;8.80;8.10;;;;;;;2.44;82.92;100566.81;10222394;29;20040;-80
2022/04/18 05:16:24;;;;;;;10.30;9.32;;;;;;;2.76;81.82;100567.97;10223883;29;20410;-80
2022/04/18 05:21:44;;;;;;;9.20;8.40;;;;;;;2.79;80.78;100567.16;10223664;29;20433;-79
2022/04/18 05:26:55;;;;;;;9.15;8.27;;;;;;;2.89;80.03;100560.28;10227427;28;20048;-80
2022/04/18 05:31:57;;;;;;;8.75;8.05;;;;;;;2.98;80.26;100565.56;10251699;29;20051;-79
2022/04/18 05:37:00;;;;;;;8.18;7.47;;;;;;;3.17;79.36;100575.19;10232032;29;20063;-80
2022/04/18 05:42:24;;;;;;;7.88;7.18;;;;;;;3.65;77.06;100578.09;10201953;29;20059;-79
2022/04/18 05:47:30;;;;;;;7.97;7.28;;;;;;;3.87;75.80;100579.06;10229882;29;20059;-81
2022/04/18 05:52:34;;;;;;;7.95;7.25;;;;;;;4.00;75.17;100573.06;10213876;29;20052;-81
2022/04/18 05:57:56;;;;;;;8.32;7.70;;;;;;;4.37;73.11;100575.75;10230485;29;20054;-80
2022/04/18 06:02:59;;;;;;;7.60;6.85;;;;;;;4.91;71.17;100567.09;10230961;29;20044;-81
2022/04/18 06:08:00;;;;;;;6.75;6.25;;;;;;;5.52;71.07;100564.41;10215734;29;20442;-81
2022/04/18 06:13:31;;;;;;;8.55;6.43;;;;;;;6.34;67.71;100551.06;10228611;29;20051;-82
2022/04/18 06:18:35;;;;;;;7.15;6.55;;;;;;;6.90;64.10;100550.63;10237235;29;20505;-81
2022/04/18 06:23:40;;;;;;;7.05;6.45;;;;;;;7.25;61.91;100552.03;10216096;29;20578;-82
2022/04/18 06:29:17;;;;;;;6.90;6.30;;;;;;;7.86;60.19;100546.13;10223239;29;20406;-81
2022/04/18 06:34:25;;;;;;;7.38;6.70;;;;;;;7.51;62.29;100544.78;10230466;29;20075;-82
2022/04/18 06:39:29;;;;;;;7.43;6.82;;;;;;;8.28;60.33;100538.59;10216188;29;20043;-80
2022/04/18 06:44:41;;;;;;;7.85;7.18;;;;;;;8.09;61.06;100543.22;10230636;29;20130;-82
2022/04/18 06:49:43;;;;;;;6.88;6.38;;;;;;;8.34;60.86;100534.13;10215586;29;20043;-82
2022/04/18 06:55:04;;;;;;;7.07;6.45;;;;;;;9.02;57.71;100525.22;10233522;29;20132;-82
2022/04/18 07:00:06;;;;;;;7.25;6.65;;;;;;;9.24;57.37;100531.81;10225530;29;20058;-81
2022/04/18 07:05:08;;;;;;;7.28;6.68;;;;;;;9.17;58.00;100535.44;10223258;29;20047;-82
2022/04/18 07:10:10;;;;;;;7.43;6.78;;;;;;;9.24;58.07;100542.28;10217214;29;20076;-80
2022/04/18 07:15:12;;;;;;;9.27;8.45;;;;;;;9.26;58.70;100537.91;10231550;29;20048;-80
2022/04/18 07:20:16;;;;;;;9.48;7.60;;;;;;;9.16;57.97;100538.06;10231919;29;20047;-81
2022/04/18 07:25:18;;;;;;;8.30;7.68;;;;;;;9.07;58.93;100539.09;10230760;29;20081;-79
2022/04/18 07:30:30;;;;;;;8.60;7.90;;;;;;;9.45;56.76;100533.16;10236333;29;20051;-82
2022/04/18 07:35:34;;;;;;;7.65;6.90;;;;;;;9.54;56.57;100525.13;10219562;29;20051;-81
2022/04/18 07:40:44;;;;;;;7.60;6.90;;;;;;;9.84;54.89;100510.50;10229853;29;20071;-82
2022/04/18 07:45:48;;;;;;;6.60;5.78;;;;;;;10.00;53.57;100507.53;10215509;29;20104;-82
2022/04/18 07:56:12;;;;;;;5.63;5.13;;;;;;;10.61;48.98;100522.78;10227296;29;20051;-82
2022/04/18 08:01:13;;;;;;;6.32;5.82;;;;;;;10.78;49.72;100526.78;10226364;29;20036;-80
2022/04/18 08:06:16;;;;;;;6.45;5.85;;;;;;;10.88;48.86;100515.13;10227019;29;20071;-82
2022/04/18 08:11:36;;;;;;;6.65;6.05;;;;;;;11.30;47.00;100521.03;10225743;29;20055;-80
2022/04/18 08:16:37;;;;;;;8.10;5.53;;;;;;;10.88;47.31;100517.75;10188686;29;20119;-81
2022/04/18 08:22:05;;;;;;;5.88;5.38;;;;;;;11.77;47.09;100502.16;10178461;29;20087;-80
2022/04/18 08:27:13;;;;;;;5.50;5.00;;;;;;;11.97;44.14;100491.09;10187332;29;20048;-79
2022/04/18 08:32:39;;;;;;;5.95;5.43;;;;;;;12.38;44.77;100497.72;10182423;29;20052;-80
2022/04/18 08:37:41;;;;;;;5.75;5.25;;;;;;;12.38;44.56;100497.72;10170828;29;20084;-81
2022/04/18 08:43:05;;;;;;;5.82;5.32;;;;;;;12.93;43.54;100493.25;10187798;29;20482;-81
2022/04/18 08:53:32;;;;;;;5.82;5.40;;;;;;;12.70;44.44;100486.09;10185728;29;20084;-80
2022/04/18 08:58:37;;;;;;;6.30;5.70;;;;;;;12.55;44.00;100487.47;10172479;29;20040;-79
2022/04/18 09:03:43;;;;;;;5.68;5.18;;;;;;;13.05;43.38;100479.63;10188012;29;20084;-79
2022/04/18 09:08:53;;;;;;;5.75;5.35;;;;;;;13.40;43.40;100472.25;10189685;29;20071;-79
2022/04/18 09:14:11;;;;;;;5.07;4.50;;;;;;;13.19;42.65;100459.81;10204223;29;20052;-80
2022/04/18 09:19:16;;;;;;;4.40;4.00;;;;;;;13.10;42.15;100464.53;10197192;29;20048;-80
2022/04/18 09:24:36;;;;;;;4.07;3.67;;;;;;;14.23;39.36;100450.63;10198909;29;20056;-81
2022/04/18 09:29:41;;;;;;;5.28;4.78;;;;;;;13.79;41.08;100450.56;10181907;29;20040;-80
2022/04/18 09:35:03;;;;;;;4.75;4.35;;;;;;;13.32;43.38;100440.00;10199488;29;20045;-80
2022/04/18 09:40:11;;;;;;;3.95;3.55;;;;;;;14.49;38.76;100417.84;10216771;29;20048;-79
2022/04/18 09:45:13;;;;;;;3.10;2.80;;;;;;;14.49;38.41;100418.69;10211427;29;20047;-81
2022/04/18 09:55:52;;;;;;;3.42;2.55;;;;;;;15.03;39.21;100411.97;10215335;29;20595;-79
2022/04/18 10:00:54;;;;;;;2.97;2.65;;;;;;;15.09;38.07;100401.09;10213830;29;20052;-82
2022/04/18 10:05:58;;;;;;;4.72;2.85;;;;;;;15.16;38.48;100398.19;10215730;29;20574;-80
2022/04/18 10:11:01;;;;;;;3.55;2.70;;;;;;;15.30;38.15;100393.97;10222994;29;20048;-79
2022/04/18 10:16:04;;;;;;;3.10;2.90;;;;;;;15.31;38.01;100395.69;10221980;29;20047;-79
2022/04/18 10:21:16;;;;;;;3.78;3.33;;;;;;;15.44;38.32;100374.78;10217964;29;20044;-79
2022/04/18 10:26:53;;;;;;;3.45;3.15;;;;;;;16.06;37.36;100380.72;10211597;29;20056;-79
2022/04/18 10:31:56;;;;;;;3.30;2.90;;;;;;;15.90;40.25;100372.66;10207538;29;20095;-79
2022/04/18 10:37:03;;;;;;;3.83;3.53;;;;;;;16.35;37.05;100372.19;10216048;29;20056;-80
2022/04/18 10:42:19;;;;;;;3.80;3.50;;;;;;;16.06;39.70;100357.72;10210635;29;20447;-80
2022/04/18 10:47:20;;;;;;;3.75;3.10;;;;;;;16.57;37.98;100355.19;10203481;29;20550;-81
2022/04/18 10:52:27;;;;;;;3.30;2.97;;;;;;;16.97;37.00;100340.72;10190952;29;20058;-82
2022/04/18 10:57:30;;;;;;;3.45;3.15;;;;;;;17.19;37.28;100340.41;10193577;29;20044;-82
2022/04/18 11:02:41;;;;;;;2.85;2.65;;;;;;;17.19;37.28;100323.63;10194212;29;20055;-81
2022/04/18 11:07:44;;;;;;;2.67;2.42;;;;;;;16.77;37.04;100330.28;10197715;29;20076;-79
2022/04/18 11:12:46;;;;;;;3.05;2.50;;;;;;;16.77;36.80;100330.28;10197834;29;20506;-80
2022/04/18 11:17:48;;;;;;;2.40;2.20;;;;;;;16.30;37.00;100329.13;10199511;29;20093;-81
2022/04/18 11:23:25;;;;;;;2.38;2.10;;;;;;;15.73;37.71;100314.31;10196163;29;20096;-80
2022/04/18 11:28:35;;;;;;;2.22;1.55;;;;;;;15.36;37.80;100314.25;10192690;29;20388;-79
2022/04/18 11:33:42;;;;;;;2.58;1.70;;;;;;;14.53;39.11;100319.78;10195690;29;20044;-79
2022/04/18 11:38:43;;;;;;;;;;;;;;;15.17;39.40;100307.22;10195764;29;20491;-80
2022/04/18 11:43:45;;;;;;;1.90;1.80;;;;;;;15.88;38.22;100305.59;10193764;29;20301;-80
2022/04/18 11:48:53;;;;;;;1.38;1.20;;;;;;;15.38;38.31;100300.91;10197766;29;20052;-79
2022/04/18 11:54:00;;;;;;;1.92;1.10;;;;;;;14.99;37.55;100299.19;10195598;29;20059;-80
2022/04/18 11:59:04;;;;;;;1.60;1.25;;;;;;;15.18;38.12;100293.91;10195474;29;20448;-79
2022/04/18 12:09:25;;;;;;;1.27;0.80;;;;;;;15.36;37.70;100282.47;10195774;29;20040;-82
2022/04/18 12:14:30;;;;;;;1.20;0.90;;;;;;;16.06;36.41;100264.91;10199563;29;20063;-79
2022/04/18 12:19:31;;;;;;;1.88;1.13;;;;;;;16.42;34.82;100266.59;10183305;29;20062;-81
2022/04/18 12:24:40;;;;;;;0.90;0.80;;;;;;;15.89;34.62;100264.88;10193753;29;20044;-81
2022/04/18 12:29:41;;;;;;;1.17;0.90;;;;;;;16.13;34.84;100253.06;10201164;29;20076;-80
2022/04/18 12:34:43;;;;;;;1.00;0.88;;;;;;;15.53;35.78;100252.50;10196751;29;20052;-81
2022/04/18 12:39:45;;;;;;;1.73;1.10;;;;;;;16.02;35.10;100239.47;10196427;29;20112;-79
2022/04/18 12:44:46;;;;;;;1.20;1.05;;;;;;;16.13;34.60;100244.25;10200322;29;20056;-79
2022/04/18 12:50:13;;;;;;;1.58;0.63;;;;;;;15.76;34.45;100231.97;10198085;29;20048;-78
2022/04/18 12:55:15;;;;;;;1.17;0.70;;;;;;;15.10;34.73;100224.59;10196124;29;20051;-80
2022/04/18 13:00:17;;;;;;;1.35;1.00;;;;;;;15.22;33.92;100217.81;10193964;29;20044;-80
2022/04/18 13:05:30;;;;;;;1.10;0.95;;;;;;;14.96;36.25;100216.41;10198945;29;20056;-79
2022/04/18 13:10:34;;;;;;;1.60;1.05;;;;;;;14.89;36.41;100198.19;10202057;29;20068;-79
2022/04/18 13:15:36;;;;;;;1.00;0.90;;;;;;;14.86;36.46;100186.88;10200824;29;20107;-79
2022/04/18 13:20:40;;;;;;;1.52;1.25;;;;;;;14.50;36.92;100189.44;10200664;29;20048;-80
2022/04/18 13:25:42;;;;;;;1.25;1.15;;;;;;;14.74;37.94;100176.84;10175296;29;20056;-80
2022/04/18 13:30:44;;;;;;;1.10;1.00;;;;;;;14.89;37.85;100176.16;10198555;29;20398;-81
2022/04/18 13:41:06;;;;;;;1.95;1.20;;;;;;;15.05;35.83;100166.56;10192023;29;20123;-80
2022/04/18 13:46:08;;;;;;;1.42;1.05;;;;;;;14.90;36.04;100167.28;10184257;29;20055;-77
2022/04/18 13:51:10;;;;;;;1.55;1.00;;;;;;;15.07;36.21;100151.44;10183732;29;20047;-77
2022/04/18 13:56:12;;;;;;;1.35;0.95;;;;;;;15.24;35.38;100161.22;10193712;29;20041;-77
2022/04/18 14:01:14;;;;;;;2.33;1.00;;;;;;;14.80;35.13;100152.78;10194044;29;20559;-78
2022/04/18 14:06:15;;;;;;;1.33;1.10;;;;;;;14.84;35.05;100146.41;10194151;29;20429;-78
2022/04/18 14:11:18;;;;;;;0.98;0.88;;;;;;;14.82;34.51;100141.16;10200508;29;20044;-78
2022/04/18 14:21:40;;;;;;;1.75;1.00;;;;;;;14.96;35.14;100129.91;10228700;29;20096;-78
2022/04/18 14:26:41;;;;;;;1.80;0.90;;;;;;;14.78;34.28;100130.81;10219971;29;20111;-77
2022/04/18 14:31:43;;;;;;;1.15;0.80;;;;;;;14.76;34.13;100122.94;10198688;29;20048;-77
2022/04/18 14:36:45;;;;;;;1.52;1.02;;;;;;;14.87;34.05;100119.78;10193444;29;20049;-79
2022/04/18 14:41:46;;;;;;;2.10;0.98;;;;;;;14.87;33.81;100114.47;10185192;29;20402;-78
2022/04/18 14:46:48;;;;;;;0.93;0.90;;;;;;;14.81;33.74;100117.44;10183398;29;20047;-78
2022/04/18 14:51:50;;;;;;;1.27;0.90;;;;;;;14.68;34.77;100105.72;10184880;29;20451;-77
2022/04/18 14:56:52;;;;;;;2.67;1.30;;;;;;;14.68;34.96;100097.78;10187131;29;20040;-78
2022/04/18 15:01:54;;;;;;;29.02;25.98;;;;;;;14.77;34.57;100107.94;10180834;29;20518;-78
2022/04/18 15:06:55;;;;;;;1.20;1.10;;;;;;;14.74;35.00;100101.00;10181153;29;20056;-79
2022/04/18 15:11:57;;;;;;;1.20;0.98;;;;;;;14.48;35.59;100090.78;10187565;29;20409;-79
2022/04/18 15:16:58;;;;;;;1.45;0.98;;;;;;;14.49;35.13;100081.94;10188335;29;20080;-78
2022/04/18 15:22:04;;;;;;;1.35;0.90;;;;;;;14.13;35.93;100088.81;10180525;29;20048;-78
2022/04/18 15:27:05;;;;;;;1.13;1.02;;;;;;;14.01;35.51;100085.88;10187115;29;20096;-79
2022/04/18 15:32:08;;;;;;;1.88;0.90;;;;;;;13.98;35.81;100081.56;10184816;29;20431;-78
2022/04/18 15:37:12;;;;;;;1.88;1.00;;;;;;;14.12;35.11;100079.19;10182179;29;20471;-78
2022/04/18 15:42:13;;;;;;;1.52;0.90;;;;;;;14.02;35.85;100080.50;10181958;29;20048;-79
2022/04/18 15:47:15;;;;;;;1.83;1.10;;;;;;;14.05;35.00;100069.78;10192738;29;20055;-80
2022/04/18 15:52:17;;;;;;;1.70;0.80;;;;;;;13.95;34.64;100078.22;10188199;29;20495;-79
2022/04/18 15:57:18;;;;;;;1.13;0.70;;;;;;;13.86;34.70;100063.63;10200273;29;20052;-79
2022/04/18 16:02:20;;;;;;;1.42;0.80;;;;;;;13.85;34.33;100078.59;10223196;29;20055;-80
2022/04/18 16:07:21;;;;;;;0.80;0.80;;;;;;;13.68;34.46;100060.03;10214757;29;20156;-80
2022/04/18 16:12:23;;;;;;;1.85;0.90;;;;;;;13.63;35.13;100057.59;10216492;29;20055;-79
2022/04/18 16:17:27;;;;;;;1.45;0.90;;;;;;;13.68;34.82;100054.75;10211963;29;20116;-80
2022/04/18 16:22:29;;;;;;;3.15;1.13;;;;;;;13.61;35.00;100053.28;10200000;29;20048;-79
2022/04/18 16:27:30;;;;;;;1.05;0.90;;;;;;;13.52;35.70;100051.91;10186383;29;20048;-78
2022/04/18 16:32:32;;;;;;;0.95;0.80;;;;;;;13.49;36.07;100054.69;10188128;29;20048;-80
2022/04/18 16:37:39;;;;;;;1.70;0.80;;;;;;;13.53;35.34;100048.34;10186002;29;20135;-78
2022/04/18 16:48:01;;;;;;;1.67;0.90;;;;;;;13.23;35.56;100033.81;10184717;29;20052;-79
2022/04/18 16:53:02;;;;;;;1.02;0.80;;;;;;;13.08;35.75;100036.16;10200032;29;20456;-79
2022/04/18 16:58:04;;;;;;;0.93;0.82;;;;;;;13.10;36.38;100041.34;10190105;29;20081;-80
2022/04/18 17:03:06;;;;;;;1.60;0.90;;;;;;;12.93;37.34;100034.16;10189441;29;20051;-78
2022/04/18 17:08:07;;;;;;;0.80;0.80;;;;;;;13.08;36.84;100038.78;10189295;29;20070;-78
2022/04/18 17:13:09;;;;;;;5.25;0.90;;;;;;;12.93;37.03;100031.53;10206085;29;20052;-79
2022/04/18 17:18:11;;;;;;;1.10;0.88;;;;;;;13.05;36.73;100031.00;10182670;29;20048;-78
2022/04/18 17:23:12;;;;;;;1.40;1.25;;;;;;;12.90;37.12;100026.38;10192443;29;20050;-78
2022/04/18 17:28:14;;;;;;;1.00;0.90;;;;;;;12.79;37.54;100023.31;10192504;29;20052;-79
2022/04/18 17:33:15;;;;;;;1.63;1.00;;;;;;;12.76;37.69;100015.53;10200360;29;20079;-79
2022/04/18 17:38:17;;;;;;;1.75;0.93;;;;;;;12.69;37.77;100019.34;10198003;29;20048;-78
2022/04/18 17:43:21;;;;;;;1.33;0.90;;;;;;;12.51;38.59;100013.88;10198150;29;20392;-79
2022/04/18 17:48:22;;;;;;;1.60;0.90;;;;;;;12.36;38.70;100019.78;10191614;29;20116;-78
2022/04/18 17:58:44;;;;;;;3.17;1.50;;;;;;;11.84;40.17;100022.63;10192514;29;20538;-78
2022/04/18 18:03:45;;;;;;;2.13;1.33;;;;;;;11.81;40.43;100025.31;10186510;29;20060;-77
2022/04/18 18:08:47;;;;;;;2.22;1.40;;;;;;;11.82;40.26;100018.28;10188149;29;20048;-78
2022/04/18 18:13:57;;;;;;;2.45;1.40;;;;;;;11.55;40.80;100025.41;10199559;29;20056;-78
2022/04/18 18:18:58;;;;;;;1.80;1.70;;;;;;;11.43;41.04;100026.72;10199989;29;20052;-79
2022/04/18 18:24:00;;;;;;;3.72;2.65;;;;;;;11.37;41.20;100032.19;10191004;29;20044;-79
2022/04/18 18:29:02;;;;;;;2.08;1.80;;;;;;;11.31;42.37;100037.66;10197632;29;20048;-78
2022/04/18 18:34:04;;;;;;;2.33;1.85;;;;;;;11.26;44.32;100035.19;10200104;29;20391;-79
2022/04/18 18:39:06;;;;;;;2.30;1.73;;;;;;;11.05;45.15;100041.19;10197216;29;20131;-79
2022/04/18 18:44:07;;;;;;;3.45;2.53;;;;;;;11.02;45.26;100039.53;10212033;29;20055;-79
2022/04/18 18:49:09;;;;;;;3.05;2.75;;;;;;;10.74;46.80;100039.56;10193330;29;20104;-80
2022/04/18 18:54:11;;;;;;;3.78;2.20;;;;;;;10.49;47.15;100049.13;10206112;29;20032;-79
2022/04/18 18:59:12;;;;;;;3.97;2.28;;;;;;;10.48;45.60;100044.78;10222132;29;20060;-78
2022/04/18 19:04:15;;;;;;;4.53;2.65;;;;;;;10.40;45.42;100042.38;10222136;29;20076;-79
2022/04/18 19:09:16;;;;;;;5.22;3.47;;;;;;;10.40;46.02;100045.00;10215682;29;20040;-79
2022/04/18 19:14:18;;;;;;;7.15;4.22;;;;;;;10.27;46.05;100041.03;10215388;29;20051;-79
2022/04/18 19:29:59;;;;;;;6.43;4.03;;;;;;;9.99;45.39;100046.25;10197087;29;20044;-79
2022/04/18 19:35:02;;;;;;;5.32;3.95;;;;;;;9.99;44.80;100047.09;10196529;29;20076;-78
2022/04/18 19:40:04;;;;;;;3.95;3.50;;;;;;;9.88;45.13;100043.94;10189378;29;20043;-80
2022/04/18 19:45:07;;;;;;;5.70;3.78;;;;;;;9.71;46.03;100043.53;10192120;29;20056;-79
2022/04/18 19:50:09;;;;;;;4.32;3.10;;;;;;;9.54;47.42;100047.50;10194142;29;20040;-79
2022/04/18 19:55:11;;;;;;;3.05;2.75;;;;;;;9.39;46.90;100033.94;10194869;29;20074;-79
2022/04/18 20:00:13;;;;;;;3.03;2.40;;;;;;;9.18;47.12;100030.13;10192548;29;20104;-79
2022/04/18 20:05:14;;;;;;;3.35;2.67;;;;;;;8.77;49.42;100032.88;10197949;29;20051;-79
2022/04/18 20:10:17;;;;;;;2.55;2.22;;;;;;;8.55;49.74;100029.91;10178052;29;20491;-80
2022/04/18 20:15:31;;;;;;;4.47;3.10;;;;;;;8.31;50.77;100025.19;10197238;29;20063;-80
2022/04/18 20:20:33;;;;;;;4.65;2.65;;;;;;;8.54;49.78;100022.06;10194531;29;20128;-80
2022/04/18 20:25:35;;;;;;;4.65;2.47;;;;;;;8.40;49.78;100018.91;10197043;29;20134;-79
2022/04/18 20:30:37;;;;;;;3.05;2.75;;;;;;;8.23;49.71;100016.66;10199541;29;20082;-79
2022/04/18 20:35:39;;;;;;;3.95;3.08;;;;;;;7.98;50.19;100011.97;10194321;29;20120;-80
2022/04/18 20:40:41;;;;;;;3.13;2.38;;;;;;;7.97;49.84;100015.50;10201692;29;20040;-79
2022/04/18 20:45:43;;;;;;;4.40;2.30;;;;;;;8.02;49.55;100015.38;10196578;29;20052;-80
2022/04/18 20:50:46;;;;;;;2.90;2.10;;;;;;;7.79;49.70;100011.50;10188276;29;20051;-80
2022/04/18 21:01:08;;;;;;;4.22;2.33;;;;;;;7.75;49.78;100012.47;10188514;29;20044;-79
2022/04/18 21:06:10;;;;;;;2.60;1.90;;;;;;;7.96;49.64;100015.50;10183208;29;20051;-80
2022/04/18 21:11:12;;;;;;;3.58;1.90;;;;;;;7.82;49.96;100007.94;10185653;29;20044;-79
2022/04/18 21:16:14;;;;;;;3.03;2.22;;;;;;;7.82;48.49;100005.31;10192894;29;20494;-78
2022/04/18 21:21:16;;;;;;;2.60;2.15;;;;;;;7.66;49.20;100012.66;10190269;29;20048;-80
2022/04/18 21:26:18;;;;;;;3.25;2.40;;;;;;;7.88;49.13;100002.59;10193431;29;20051;-79
2022/04/18 21:31:22;;;;;;;2.50;1.90;;;;;;;7.93;49.47;99998.13;10186603;29;20048;-79
2022/04/18 21:36:42;;;;;;;1.95;1.58;;;;;;;7.87;49.64;99998.22;10186946;29;20058;-80
2022/04/18 21:41:43;;;;;;;2.13;1.50;;;;;;;7.69;50.34;100003.84;10185803;29;20047;-79
2022/04/18 21:46:45;;;;;;;2.33;2.00;;;;;;;7.69;52.14;100002.09;10189271;29;20040;-79
2022/04/18 21:51:49;;;;;;;2.63;1.60;;;;;;;7.15;53.53;99997.06;10186596;29;20055;-79
2022/04/18 21:56:51;;;;;;;2.83;1.80;;;;;;;7.20;54.63;99989.97;10190467;29;20059;-79
2022/04/18 22:01:53;;;;;;;1.55;1.40;;;;;;;7.12;54.97;99985.78;10191848;29;20080;-78
2022/04/18 22:06:54;;;;;;;2.45;1.60;;;;;;;6.96;55.42;99986.09;10211415;29;20048;-78
2022/04/18 22:11:56;;;;;;;2.17;1.67;;;;;;;6.82;56.00;99986.31;10206937;29;20048;-79
2022/04/18 22:16:58;;;;;;;1.90;1.60;;;;;;;6.75;56.29;99981.22;10210412;29;20051;-78
2022/04/18 22:27:26;;;;;;;3.50;2.20;;;;;;;6.75;56.50;99965.56;10213812;29;20059;-78
2022/04/18 22:32:28;;;;;;;2.78;2.00;;;;;;;6.85;54.87;99959.25;10190470;29;20048;-80
2022/04/18 22:37:32;;;;;;;2.63;1.92;;;;;;;6.70;54.42;99959.53;10193983;29;20060;-80
2022/04/18 22:42:34;;;;;;;2.53;1.95;;;;;;;6.55;55.14;99955.41;10195494;29;20507;-79
2022/04/18 22:47:36;;;;;;;2.30;1.90;;;;;;;6.36;55.69;99947.03;10193124;29;20100;-78
2022/04/18 22:52:37;;;;;;;2.47;2.25;;;;;;;6.15;56.71;99947.38;10173887;29;20051;-78
2022/04/18 22:57:39;;;;;;;3.15;2.15;;;;;;;5.93;57.88;99942.50;10191907;29;20119;-78
2022/04/18 23:02:42;;;;;;;3.78;2.92;;;;;;;6.09;58.55;99931.81;10191856;29;20044;-79
2022/04/18 23:07:44;;;;;;;3.40;2.42;;;;;;;6.25;58.33;99936.78;10193251;29;20055;-79
2022/04/18 23:12:50;;;;;;;3.35;2.53;;;;;;;6.09;58.77;99929.19;10205317;29;20042;-79
2022/04/18 23:17:52;;;;;;;2.78;2.33;;;;;;;5.93;60.25;99923.34;10190266;29;20463;-79
2022/04/18 23:22:56;;;;;;;3.45;2.50;;;;;;;5.89;60.22;99925.13;10174166;29;20040;-79
2022/04/18 23:27:59;;;;;;;4.57;2.33;;;;;;;5.75;60.26;99912.25;10186847;29;20044;-79
2022/04/18 23:33:00;;;;;;;3.35;2.28;;;;;;;5.82;61.18;99903.47;10174810;29;20056;-78
2022/04/18 23:38:03;;;;;;;3.08;2.30;;;;;;;5.85;60.53;99902.56;10186037;29;20506;-78
2022/04/18 23:43:04;;;;;;;2.70;2.38;;;;;;;5.76;61.42;99898.34;10188649;29;20044;-78
2022/04/18 23:48:06;;;;;;;4.55;2.55;;;;;;;5.72;61.75;99896.66;10189193;29;20064;-79
2022/04/18 23:53:08;;;;;;;4.60;3.05;;;;;;;5.84;60.78;99898.22;10189218;29;20040;-80
2022/04/18 23:58:09;;;;;;;4.20;3.25;;;;;;;6.00;60.56;99891.91;10191677;29;20104;-79
